Limassol, Cyprus
Current Conditions -  °F | °C
As of 10:50 PM on Sunday 25 Jan 2015 (Local Time) from LCRA Reporting Station
Clear Clear  
Wind Chill: 11°   Ceiling: Unl
Heat Index: 11°   Visibility: 6mi
Dew Point:   Wind: 3mph
Humidity: 82%   Direction: 330°NNW
Pressure: 30.06"   Gusts: NA
Location:  34.76°N, 32.95°E
Report Text: LCRA 251950Z 33003KT CAVOK 11/08 Q1018 NOSIG
Loading
Personal Weather Stations






























Interactive Weather Map New forecast layout! Learn more

10-Day Weather Forecast

Advertisements
Track Severe Weather on mobile